GANR

Nioro du Sahel Airport

Nioro du Sahel, Mali
METAR GANR 171500Z 34004KT CAVOK 34/23 Q1011
Observed Flight Rules
Aug-17 @ 15:00 UTC (2 hours ago) Visual Flight Rules
Wind Visibility Clouds
340° at 4 knots 10,000+ meters
  • Clear skies
Temperatures Readings
Current 34°C / 93°F
Dewpoint 23°C / 73°F
Humidity 53%
Altimeter 29.85" Hg
Pressure 1011 hPa
Elevation 237
METAR GANR 171500Z 34004KT CAVOK 34/23 Q1011
Observed Flight Rules
Aug-17 @ 15:00 UTC
(2 hours ago)
VFR
Wind Visibility
340° at 4 knots 10,000+ meters
Clouds
  • Clear skies
Temperature Dewpoint
34°C / 93°F 23°C / 73°F
Humidity Altimeter Pressure
53% 29.85" Hg 1011 hPa